South Boston, VA

2:20 PM EST on December 06, 2016 (GMT -0500)
North Main Street | | Change Station

Elev 489 ft 36.73 °N, 78.91 °W | Updated 4 minutes ago

Light Rain
Light Rain Mist
42.9 °F
Feels Like 41 °F
N
4.0
Wind Variable Wind from SSE
Gusts 4.0 mph

Today
High -- | Low -- °F
--% Chance of Precip.
Yesterday
High -- | Low -- °F
Precip. -- in
Pressure 29.72 in
Visibility 5.0 miles
Clouds Mostly Cloudy 700 ft
Overcast 1100 ft
Windchill 41 °F
Dew Point 42 °F
Humidity 97%
Rainfall 0.00 in
Snow Depth Not available.
7:14 AM 4:59 PM
Waxing Crescent, 44% visible
METAR KDAN 061853Z AUTO 03011KT 5SM -RA BR BKN007 OVC011 06/06 A2973 RMK AO2 RAB02 SLP064 P0004 T00560056
Pressure 29.72 in
Visibility 5.0 miles
Clouds Mostly Cloudy 700 ft
Overcast 1100 ft
Windchill 41 °F
Dew Point 42 °F
Humidity 97%
Rainfall 0.00 in
Snow Depth Not available.
7:14 AM 4:59 PM
Waxing Crescent, 44% visible
METAR KDAN 061853Z AUTO 03011KT 5SM -RA BR BKN007 OVC011 06/06 A2973 RMK AO2 RAB02 SLP064 P0004 T00560056

10-Day Weather Forecast

Almanac

Astronomy

Dec. 06, 2016 Rise Set
Actual Time
Civil Twilight
Nautical Twilight
Astronomical Twilight
Moon
Length of Visible Light
Length of Day
Tomorrow will be .
, % of the Moon is Illuminated

Today's Extremes

State Highs State Lows

Community

WunderPhotos

Upload Photos

1,956,015 photos uploaded!

WunderBlog® & News

Nearby

Air Quality

  Air Quality AQ Index Pollutant
Not available.

Snow Depth

Station Depth Elevation

Earthquake Activity

City Distance Mag. Time & Date
Minimum magnitude displayed is 2.5.

Coastal Water Temperatures

Place Temperature

Stations

Nearby Weather Stations

Station Location Temp. Windchill Dew Point Humidity Wind Precip. Elev Updated Type
                   

Watches & Warnings

There are currently no watches in effect.